createdAt,value
2017-12-13T00:00:35.994Z,85.89
2017-12-13T00:01:16.706Z,86.27
2017-12-13T00:01:57.495Z,85.8
2017-12-13T00:02:38.057Z,84.94
2017-12-13T00:03:18.579Z,85.42
2017-12-13T00:03:59.255Z,85.13
2017-12-13T00:04:39.785Z,85.61
2017-12-13T00:05:20.376Z,85.89
2017-12-13T00:06:04.832Z,84.94
2017-12-13T00:06:45.557Z,85.61
2017-12-13T00:07:26.089Z,84.75
2017-12-13T00:08:06.676Z,85.04
2017-12-13T00:08:50.260Z,85.13
2017-12-13T00:09:32.611Z,85.04
2017-12-13T00:10:15.996Z,84.85
2017-12-13T00:10:56.715Z,85.04
2017-12-13T00:11:37.093Z,84.85
2017-12-13T00:12:17.788Z,85.32
2017-12-13T00:12:58.372Z,85.89
2017-12-13T00:13:38.986Z,86.18
2017-12-13T00:14:19.581Z,85.7
2017-12-13T00:15:00.178Z,84.85
2017-12-13T00:15:40.732Z,84.66
2017-12-13T00:16:21.334Z,84.66
2017-12-13T00:17:01.834Z,85.13
2017-12-13T00:17:42.415Z,84.94
2017-12-13T00:18:22.893Z,84.85
2017-12-13T00:19:04.062Z,85.23
2017-12-13T00:19:44.756Z,85.13
2017-12-13T00:20:25.332Z,85.32
2017-12-13T00:21:06.017Z,85.04
2017-12-13T00:21:46.687Z,84.85
2017-12-13T00:22:27.226Z,85.8
2017-12-13T00:23:07.792Z,85.85
2017-12-13T00:23:48.669Z,85.8
2017-12-13T00:24:28.998Z,86.18
2017-12-13T00:25:12.693Z,85.94
2017-12-13T00:25:53.276Z,85.85
2017-12-13T00:26:33.856Z,86.32
2017-12-13T00:27:14.444Z,86.13
2017-12-13T00:27:55.030Z,86.13
2017-12-13T00:28:35.548Z,86.22
2017-12-13T00:29:17.444Z,86.04
2017-12-13T00:30:00.429Z,86.98
2017-12-13T00:30:41.043Z,86.7
2017-12-13T00:31:21.632Z,86.22
2017-12-13T00:32:02.300Z,86.7
2017-12-13T00:32:42.776Z,86.79
2017-12-13T00:33:26.675Z,86.41
2017-12-13T00:34:07.148Z,86.79
2017-12-13T00:34:47.773Z,86.7
2017-12-13T00:35:28.412Z,86.83
2017-12-13T00:36:08.855Z,86.6
2017-12-13T00:36:49.457Z,85.99
2017-12-13T00:37:30.292Z,86.27
2017-12-13T00:38:10.844Z,85.8
2017-12-13T00:38:51.469Z,85.7
2017-12-13T00:39:32.030Z,85.7
2017-12-13T00:40:12.656Z,85.7
2017-12-13T00:40:53.168Z,85.51
2017-12-13T00:41:33.733Z,85.23
2017-12-13T00:42:15.951Z,85.04
2017-12-13T00:42:56.479Z,85.32
2017-12-13T00:43:37.071Z,85.7
2017-12-13T00:44:18.162Z,85.13
2017-12-13T00:45:01.573Z,85.32
2017-12-13T00:45:42.441Z,85.99
2017-12-13T00:46:22.782Z,85.23
2017-12-13T00:47:03.513Z,85.04
2017-12-13T00:47:44.155Z,84.66
2017-12-13T00:48:28.007Z,84.09
2017-12-13T00:49:08.668Z,84.09
2017-12-13T00:49:49.338Z,83.43
2017-12-13T00:50:29.838Z,83.43
2017-12-13T00:51:10.491Z,83.62
2017-12-13T00:51:51.056Z,83.52
2017-12-13T00:52:34.073Z,83.62
2017-12-13T00:53:14.586Z,83.33
2017-12-13T00:53:55.205Z,83.05
2017-12-13T00:54:37.582Z,83.62
2017-12-13T00:55:18.231Z,84.09
2017-12-13T00:55:58.783Z,83.43
2017-12-13T00:56:39.261Z,83.62
2017-12-13T00:57:20.110Z,83.47
2017-12-13T00:58:00.684Z,83.14
2017-12-13T00:58:41.156Z,82.48
2017-12-13T00:59:21.759Z,81.92
2017-12-13T01:00:02.197Z,82.1
2017-12-13T01:00:42.818Z,82.48
2017-12-13T01:01:25.101Z,82.86
2017-12-13T01:02:05.705Z,83.52
2017-12-13T01:02:46.308Z,83.33
2017-12-13T01:03:28.484Z,83.62
2017-12-13T01:04:10.667Z,83.33
2017-12-13T01:04:51.245Z,83.43
2017-12-13T01:05:31.920Z,82.86
2017-12-13T01:06:12.477Z,83.43
2017-12-13T01:06:52.971Z,82.67
2017-12-13T01:07:37.295Z,83.24
2017-12-13T01:08:17.898Z,82.76
2017-12-13T01:08:58.424Z,82.67
2017-12-13T01:09:39.026Z,82.39
2017-12-13T01:10:19.586Z,83.33
2017-12-13T01:11:00.234Z,83.14
2017-12-13T01:11:43.971Z,83.43
2017-12-13T01:12:24.582Z,83.05
2017-12-13T01:13:05.259Z,82.76
2017-12-13T01:13:45.840Z,82.39
2017-12-13T01:14:26.425Z,83.33
2017-12-13T01:15:06.931Z,82.57
2017-12-13T01:15:47.650Z,83.33
2017-12-13T01:16:28.204Z,82.95
2017-12-13T01:17:08.734Z,83.52
2017-12-13T01:17:49.364Z,83.37
2017-12-13T01:18:29.958Z,83.05
2017-12-13T01:19:13.602Z,82.86
2017-12-13T01:19:53.469Z,82.01
2017-12-13T01:20:36.445Z,81.72
2017-12-13T01:21:17.234Z,82.1
2017-12-13T01:21:57.802Z,82.29
2017-12-13T01:22:38.373Z,83.14
2017-12-13T01:23:23.232Z,83.43
2017-12-13T01:24:03.833Z,83.62
2017-12-13T01:24:44.385Z,83.52
2017-12-13T01:25:25.037Z,84.38
2017-12-13T01:26:05.550Z,83.71
2017-12-13T01:26:49.449Z,83.43
2017-12-13T01:27:30.000Z,82.76
2017-12-13T01:28:10.599Z,82.76
2017-12-13T01:28:51.249Z,82.48
2017-12-13T01:29:31.805Z,82.39
2017-12-13T01:30:12.394Z,82.48
2017-12-13T01:30:52.921Z,82.39
2017-12-13T01:31:33.584Z,82.2
2017-12-13T01:32:14.109Z,82.29
2017-12-13T01:32:54.729Z,82.76
2017-12-13T01:33:35.503Z,83.24
2017-12-13T01:34:15.931Z,83.43
2017-12-13T01:34:56.635Z,83.43
2017-12-13T01:35:37.174Z,83.33
2017-12-13T01:36:17.676Z,83.43
2017-12-13T01:37:01.205Z,83.62
2017-12-13T01:37:42.906Z,84.47
2017-12-13T01:38:23.580Z,83.33
2017-12-13T01:39:04.029Z,83.05
2017-12-13T01:39:44.661Z,83.14
2017-12-13T01:40:27.869Z,82.82
2017-12-13T01:41:08.499Z,83.29
2017-12-13T01:41:49.582Z,84.28
2017-12-13T01:42:30.242Z,83.58
2017-12-13T01:43:10.821Z,83.67
2017-12-13T01:43:51.363Z,84.05
2017-12-13T01:44:31.927Z,84.14
2017-12-13T01:45:12.523Z,84.33
2017-12-13T01:45:56.269Z,84.47
2017-12-13T01:46:36.943Z,84.38
2017-12-13T01:47:17.520Z,84.14
2017-12-13T01:47:58.054Z,84.42
2017-12-13T01:48:38.624Z,84.61
2017-12-13T01:49:19.153Z,84.42
2017-12-13T01:49:59.797Z,84.52
2017-12-13T01:50:40.321Z,84.33
2017-12-13T01:51:20.945Z,84.81
2017-12-13T01:52:01.562Z,85.28
2017-12-13T01:52:42.165Z,85.19
2017-12-13T01:53:28.507Z,85.28
2017-12-13T01:54:09.131Z,85.28
2017-12-13T01:54:49.719Z,85.19
2017-12-13T01:55:30.310Z,85
2017-12-13T01:56:10.870Z,85.75
2017-12-13T01:56:55.180Z,85.85
2017-12-13T01:57:35.736Z,85.75
2017-12-13T01:58:16.329Z,85.09
2017-12-13T01:58:56.980Z,84.61
2017-12-13T01:59:37.655Z,84.52
2017-12-13T02:00:18.115Z,84.71
2017-12-13T02:01:01.972Z,84.42
2017-12-13T02:01:42.688Z,84.14
2017-12-13T02:02:23.335Z,84.14
2017-12-13T02:03:03.906Z,84.71
2017-12-13T02:03:44.429Z,84.61
2017-12-13T02:04:24.982Z,85.09
2017-12-13T02:05:05.578Z,84.81
2017-12-13T02:05:46.118Z,85.09
2017-12-13T02:06:26.740Z,85.66
2017-12-13T02:07:07.367Z,85.85
2017-12-13T02:07:48.061Z,85.57
2017-12-13T02:08:28.494Z,85.57
2017-12-13T02:09:09.087Z,85.75
2017-12-13T02:09:49.691Z,85.57
2017-12-13T02:10:30.271Z,85.47
2017-12-13T02:11:10.845Z,86.22
2017-12-13T02:11:51.360Z,85.75
2017-12-13T02:12:31.868Z,85.85
2017-12-13T02:13:12.428Z,85.75
2017-12-13T02:13:55.802Z,85.57
2017-12-13T02:14:37.190Z,85.57
2017-12-13T02:15:17.756Z,85.66
2017-12-13T02:15:58.365Z,85.94
2017-12-13T02:16:40.062Z,85.75
2017-12-13T02:17:20.646Z,85.85
2017-12-13T02:18:03.492Z,85.66
2017-12-13T02:18:43.963Z,86.04
2017-12-13T02:19:24.602Z,85.94
2017-12-13T02:20:05.223Z,86.04
2017-12-13T02:20:45.656Z,85.94
2017-12-13T02:21:26.478Z,85.94
2017-12-13T02:28:07.532Z,84.42
2017-12-13T02:28:44.467Z,84.71
2017-12-13T02:29:24.876Z,84.33
2017-12-13T02:30:05.230Z,84.42
2017-12-13T02:30:45.663Z,84.33
2017-12-13T02:31:26.158Z,85.13
2017-12-13T02:32:06.529Z,84.38
2017-12-13T02:32:47.018Z,84.75
2017-12-13T02:33:27.401Z,84.66
2017-12-13T02:34:07.821Z,84.56
2017-12-13T02:34:48.180Z,84.47
2017-12-13T02:35:29.035Z,84.28
2017-12-13T02:36:09.080Z,84.28
2017-12-13T02:36:49.702Z,84.09
2017-12-13T02:37:30.186Z,84.09
2017-12-13T02:38:10.696Z,84
2017-12-13T02:38:51.187Z,84.19
2017-12-13T02:39:31.624Z,84.19
2017-12-13T02:40:11.863Z,84.19
2017-12-13T02:40:53.140Z,83.9
2017-12-13T02:41:32.908Z,84.19
2017-12-13T02:42:13.433Z,84.38
2017-12-13T02:42:53.737Z,84.14
2017-12-13T02:43:34.116Z,84.47
2017-12-13T02:44:14.579Z,84.61
2017-12-13T02:44:54.959Z,84.66
2017-12-13T02:45:35.473Z,84.47
2017-12-13T02:46:16.903Z,84.47
2017-12-13T02:46:56.939Z,84.56
2017-12-13T02:47:37.369Z,84.47
2017-12-13T02:48:17.742Z,84.66
2017-12-13T02:48:58.243Z,84.19
2017-12-13T02:49:38.716Z,84.09
2017-12-13T02:50:19.143Z,84
2017-12-13T02:50:59.515Z,84.38
2017-12-13T02:51:39.979Z,84.28
2017-12-13T02:52:20.319Z,84.47
2017-12-13T02:53:00.736Z,84.56
2017-12-13T02:53:41.139Z,84.56
2017-12-13T02:54:21.643Z,84.75
2017-12-13T02:55:02.016Z,84.28
2017-12-13T02:55:42.377Z,83.81
2017-12-13T02:56:22.774Z,83.62
2017-12-13T02:57:03.504Z,83.43
2017-12-13T02:57:44.109Z,83.81
2017-12-13T02:58:24.628Z,83.43
2017-12-13T02:59:04.986Z,84
2017-12-13T02:59:45.343Z,84.38
2017-12-13T03:00:25.826Z,83.62
2017-12-13T03:01:06.464Z,83.43
2017-12-13T03:01:46.815Z,83.43
2017-12-13T03:02:27.187Z,83.52
2017-12-13T03:03:07.793Z,83.43
2017-12-13T03:03:48.217Z,83.43
2017-12-13T03:04:28.563Z,83.33
2017-12-13T03:05:09.049Z,83.52
2017-12-13T03:05:49.474Z,83.52
2017-12-13T03:06:29.870Z,84
2017-12-13T03:07:10.430Z,83.33
2017-12-13T03:07:50.938Z,83.52
2017-12-13T03:08:31.377Z,83.62
2017-12-13T03:09:11.859Z,83.43
2017-12-13T03:09:52.392Z,83.52
2017-12-13T03:11:54.115Z,84.47
2017-12-13T03:13:28.903Z,83.71
2017-12-13T03:14:11.863Z,83.14
2017-12-13T03:14:52.245Z,83.43
2017-12-13T03:15:32.707Z,83.33
2017-12-13T03:16:13.220Z,83.52
2017-12-13T03:16:54.071Z,83.33
2017-12-13T03:17:34.317Z,83.33
2017-12-13T03:18:14.884Z,83.43
2017-12-13T03:18:55.327Z,83.43
2017-12-13T03:19:35.825Z,83.33
2017-12-13T03:20:16.256Z,84
2017-12-13T03:20:56.638Z,84.19
2017-12-13T03:21:37.055Z,84.09
2017-12-13T03:22:17.411Z,84
2017-12-13T03:22:58.055Z,84.09
2017-12-13T03:23:39.824Z,84.66
2017-12-13T03:24:19.021Z,84.81
2017-12-13T03:24:59.497Z,84.42
2017-12-13T03:25:39.792Z,84.94
2017-12-13T03:26:20.156Z,85
2017-12-13T03:27:00.636Z,84.94
2017-12-13T03:27:41.193Z,85.13
2017-12-13T03:28:21.809Z,85.13
2017-12-13T03:29:02.092Z,85.13
2017-12-13T03:30:55.480Z,85.23
2017-12-13T03:31:41.640Z,85.04
2017-12-13T03:32:20.663Z,85.04
2017-12-13T03:33:01.063Z,84.85
2017-12-13T03:33:41.453Z,84.66
2017-12-13T03:34:21.831Z,84.66
2017-12-13T03:35:02.560Z,84.28
2017-12-13T03:35:43.134Z,84.47
2017-12-13T03:36:23.467Z,84.66
2017-12-13T03:37:03.917Z,84.28
2017-12-13T03:37:44.326Z,84.47
2017-12-13T03:38:24.935Z,84.28
2017-12-13T03:39:05.305Z,84
2017-12-13T03:39:45.752Z,84.28
2017-12-13T03:40:27.435Z,84.47
2017-12-13T03:41:07.411Z,83.71
2017-12-13T03:41:47.835Z,84
2017-12-13T03:42:28.198Z,83.62
2017-12-13T03:43:08.535Z,84
2017-12-13T03:43:48.974Z,84.38
2017-12-13T03:44:29.375Z,83.81
2017-12-13T03:45:09.743Z,83.62
2017-12-13T03:45:50.132Z,83.52
2017-12-13T03:46:30.549Z,83.43
2017-12-13T03:47:11.042Z,83.52
2017-12-13T03:47:51.321Z,83.43
2017-12-13T03:48:32.007Z,83.52
2017-12-13T03:49:12.309Z,83.43
2017-12-13T03:49:52.752Z,83.81
2017-12-13T03:50:33.176Z,83.62
2017-12-13T03:51:13.513Z,83.71
2017-12-13T03:51:53.922Z,83.52
2017-12-13T03:52:34.363Z,83.62
2017-12-13T03:53:14.805Z,83.62
2017-12-13T03:53:55.211Z,83.43
2017-12-13T03:54:35.535Z,83.52
2017-12-13T03:55:15.970Z,84
2017-12-13T03:55:56.394Z,84.47
2017-12-13T03:56:36.797Z,84.56
2017-12-13T03:57:17.219Z,83.71
2017-12-13T03:57:57.827Z,83.43
2017-12-13T03:58:38.253Z,83.62
2017-12-13T03:59:18.657Z,83.71
2017-12-13T03:59:59.050Z,83.9
2017-12-13T04:00:39.495Z,84.28
2017-12-13T04:01:19.880Z,83.71
2017-12-13T04:02:00.511Z,84.28
2017-12-13T04:42:02.610Z,89.54
2017-12-13T04:42:43.253Z,89.63
2017-12-13T04:43:23.786Z,89.73
2017-12-13T04:44:04.184Z,89.73
2017-12-13T04:46:17.031Z,90.39
2017-12-13T04:46:57.639Z,90.63
2017-12-13T04:47:38.052Z,90.48
2017-12-13T04:48:18.498Z,90.39
2017-12-13T04:48:58.871Z,90.53
2017-12-13T04:49:39.481Z,90.44
2017-12-13T04:50:20.104Z,90.34
2017-12-13T04:51:00.491Z,90.06
2017-12-13T04:51:40.890Z,89.77
2017-12-13T04:52:21.297Z,90.15
2017-12-13T04:53:01.943Z,90.06
2017-12-13T04:53:42.298Z,89.58
2017-12-13T04:54:22.723Z,89.96
2017-12-13T04:55:03.278Z,89.68
2017-12-13T04:55:43.587Z,89.68
2017-12-13T04:56:24.113Z,89.77
2017-12-13T04:57:04.600Z,89.01
2017-12-13T04:57:44.792Z,88.82
2017-12-13T04:58:25.212Z,89.2
2017-12-13T04:59:05.717Z,88.92
2017-12-13T04:59:46.052Z,89.39
2017-12-13T05:00:26.534Z,88.82
2017-12-13T05:01:07.641Z,88.3
2017-12-13T05:01:48.028Z,88.78
2017-12-13T05:02:29.478Z,88.11
2017-12-13T05:03:09.594Z,88.59
2017-12-13T05:03:49.984Z,88.4
2017-12-13T05:04:30.440Z,87.64
2017-12-13T05:05:10.811Z,87.73
2017-12-13T05:05:51.228Z,87.16
2017-12-13T05:06:31.647Z,87.35
2017-12-13T05:07:12.196Z,87.54
2017-12-13T05:07:52.544Z,87.35
2017-12-13T05:08:32.949Z,86.98
2017-12-13T05:09:13.739Z,87.26
2017-12-13T05:09:54.181Z,86.79
2017-12-13T05:10:34.588Z,86.64
2017-12-13T05:11:15.621Z,86.83
2017-12-13T05:11:56.075Z,86.64
2017-12-13T05:12:36.517Z,85.78
2017-12-13T05:13:16.871Z,85.31
2017-12-13T05:13:57.969Z,85.13
2017-12-13T05:14:38.320Z,85.13
2017-12-13T05:15:18.695Z,85.13
2017-12-13T05:15:59.082Z,85.03
2017-12-13T05:16:39.496Z,85.13
2017-12-13T05:17:19.916Z,85.03
2017-12-13T05:18:00.293Z,85.41
2017-12-13T05:18:40.718Z,85.03
2017-12-13T05:19:21.425Z,85.22
2017-12-13T05:20:02.470Z,85.13
2017-12-13T05:20:42.989Z,85.22
2017-12-13T05:30:40.955Z,84.74
2017-12-13T05:31:23.974Z,84.27
2017-12-13T05:32:04.398Z,84.46
2017-12-13T05:32:45.131Z,84.27
2017-12-13T05:33:25.525Z,84.65
2017-12-13T05:34:05.935Z,84.55
2017-12-13T05:34:46.311Z,84.65
2017-12-13T05:35:26.765Z,84.74
2017-12-13T05:36:07.277Z,84.46
2017-12-13T05:36:47.767Z,84.55
2017-12-13T05:37:28.166Z,84.08
2017-12-13T05:38:08.624Z,83.7
2017-12-13T05:38:48.902Z,83.32
2017-12-13T05:39:29.377Z,82.94
2017-12-13T05:40:09.744Z,83.7
2017-12-13T05:40:50.310Z,83.42
2017-12-13T05:41:30.636Z,82.47
2017-12-13T05:42:11.047Z,82.85
2017-12-13T05:42:51.478Z,82.56
2017-12-13T05:43:31.911Z,82.66
2017-12-13T05:44:12.292Z,82.28
2017-12-13T05:44:52.686Z,82.37
2017-12-13T05:45:33.238Z,82.75
2017-12-13T05:46:13.678Z,82.56
2017-12-13T05:46:54.111Z,82.28
2017-12-13T05:47:34.430Z,82.28
2017-12-13T05:48:14.832Z,82.66
2017-12-13T05:48:55.228Z,82.66
2017-12-13T05:49:35.668Z,82.56
2017-12-13T05:50:16.098Z,82.47
2017-12-13T05:50:56.492Z,82.66
2017-12-13T05:51:36.991Z,82.75
2017-12-13T05:52:17.424Z,82.47
2017-12-13T05:52:57.846Z,82.47
2017-12-13T05:55:02.618Z,82.56
2017-12-13T05:55:43.020Z,82.56
2017-12-13T05:56:23.403Z,83.23
2017-12-13T05:57:04.133Z,83.23
2017-12-13T05:57:44.842Z,83.32
2017-12-13T05:58:26.041Z,83.23
2017-12-13T05:59:06.951Z,82.66
2017-12-13T05:59:47.567Z,83.32
2017-12-13T06:00:29.061Z,82.94
2017-12-13T06:01:09.526Z,83.13
2017-12-13T06:01:49.932Z,82.94
2017-12-13T06:02:30.487Z,83.04
2017-12-13T06:03:10.836Z,83.13
2017-12-13T06:03:51.261Z,83.04
2017-12-13T06:04:31.632Z,83.13
2017-12-13T06:05:12.108Z,82.75
2017-12-13T06:05:52.415Z,83.51
2017-12-13T06:06:32.883Z,83.04
2017-12-13T06:07:13.246Z,83.04
2017-12-13T06:07:53.644Z,82.94
2017-12-13T06:08:34.103Z,82.75
2017-12-13T06:09:14.461Z,83.13
2017-12-13T06:09:55.052Z,82.94
2017-12-13T06:10:35.495Z,82.85
2017-12-13T06:11:15.898Z,83.42
2017-12-13T06:11:56.281Z,82.85
2017-12-13T06:12:36.592Z,82.75
2017-12-13T06:13:17.035Z,82.66
2017-12-13T06:13:57.412Z,82.66
2017-12-13T06:14:37.807Z,81.99
2017-12-13T06:15:18.263Z,82.09
2017-12-13T06:15:58.761Z,81.99
2017-12-13T06:16:39.166Z,82.18
2017-12-13T06:17:19.542Z,82.18
2017-12-13T06:17:59.895Z,82.56
2017-12-13T06:18:40.291Z,82.09
2017-12-13T06:19:20.730Z,82.09
2017-12-13T06:20:01.122Z,82.66
2017-12-13T06:20:41.522Z,82.28
2017-12-13T06:21:21.856Z,82.56
2017-12-13T06:22:02.290Z,82.66
2017-12-13T06:22:42.662Z,82.28
2017-12-13T06:23:23.079Z,81.9
2017-12-13T06:24:03.478Z,82.18
2017-12-13T06:24:44.197Z,82.18
2017-12-13T06:25:24.954Z,82.28
2017-12-13T06:26:05.493Z,82.09
2017-12-13T06:26:45.924Z,82.18
2017-12-13T06:27:26.497Z,81.9
2017-12-13T06:28:07.031Z,82.56
2017-12-13T06:28:47.483Z,82.28
2017-12-13T06:29:28.039Z,81.9
2017-12-13T06:30:08.453Z,82.09
2017-12-13T06:30:48.896Z,82.09
2017-12-13T06:31:29.228Z,82.09
2017-12-13T06:32:09.682Z,81.99
2017-12-13T06:32:50.058Z,82.18
2017-12-13T06:33:30.463Z,81.81
2017-12-13T06:34:10.809Z,81.71
2017-12-13T06:34:51.281Z,82.09
2017-12-13T06:35:31.588Z,82.28
2017-12-13T06:36:12.066Z,82.56
2017-12-13T06:36:52.453Z,82.18
2017-12-13T06:37:32.837Z,82.75
2017-12-13T06:38:13.226Z,82.18
2017-12-13T06:38:53.627Z,82.75
2017-12-13T06:39:34.221Z,82.66
2017-12-13T06:40:14.603Z,82.66
2017-12-13T06:40:54.944Z,82.56
2017-12-13T06:41:35.357Z,82.28
2017-12-13T06:42:15.786Z,82.47
2017-12-13T06:42:56.270Z,82.56
2017-12-13T06:43:36.665Z,82.47
2017-12-13T06:44:17.083Z,82.66
2017-12-13T06:44:58.724Z,82.47
2017-12-13T06:45:39.497Z,82.75
2017-12-13T06:46:21.838Z,83.32
2017-12-13T06:47:02.179Z,82.66
2017-12-13T06:47:43.295Z,82.75
2017-12-13T06:48:24.594Z,82.75
2017-12-13T06:49:05.070Z,83.23
2017-12-13T06:49:44.789Z,83.32
2017-12-13T06:50:25.246Z,83.23
2017-12-13T06:51:05.792Z,82.66
2017-12-13T06:51:46.206Z,82.75
2017-12-13T06:52:26.608Z,83.51
2017-12-13T06:53:07.073Z,83.51
2017-12-13T06:54:02.384Z,83.98
2017-12-13T06:54:42.837Z,83.61
2017-12-13T06:55:23.251Z,83.51
2017-12-13T06:56:03.650Z,83.42
2017-12-13T06:56:44.072Z,83.42
2017-12-13T06:57:24.415Z,83.7
2017-12-13T06:58:04.924Z,83.7
2017-12-13T06:58:45.405Z,83.42
2017-12-13T06:59:25.744Z,83.8
2017-12-13T07:00:06.274Z,83.61
2017-12-13T07:00:46.555Z,83.42
2017-12-13T07:01:26.984Z,83.42
2017-12-13T07:02:07.448Z,83.61
2017-12-13T07:02:47.916Z,83.32
2017-12-13T07:03:28.387Z,83.42
2017-12-13T07:04:08.955Z,83.51
2017-12-13T07:04:49.219Z,83.51
2017-12-13T07:05:29.947Z,82.94
2017-12-13T07:06:10.134Z,82.85
2017-12-13T07:06:50.578Z,82.75
2017-12-13T07:07:30.989Z,82.85
2017-12-13T07:08:11.542Z,82.32
2017-12-13T07:08:52.738Z,82.18
2017-12-13T07:09:33.745Z,82.6
2017-12-13T07:10:14.620Z,82.09
2017-12-13T07:10:56.571Z,82.23
2017-12-13T07:11:36.782Z,82.04
2017-12-13T07:12:18.174Z,82.09
2017-12-13T07:12:58.470Z,82.23
2017-12-13T07:13:38.927Z,82.13
2017-12-13T07:14:20.553Z,81.75
2017-12-13T07:15:00.708Z,81.56
2017-12-13T07:15:41.349Z,81.85
2017-12-13T07:16:22.858Z,81.66
2017-12-13T07:17:03.593Z,81.66
2017-12-13T07:17:43.873Z,81.75
2017-12-13T07:18:24.512Z,81.66
2017-12-13T07:19:04.857Z,81.66
2017-12-13T07:19:45.245Z,81.66
2017-12-13T07:20:26.616Z,81.47
2017-12-13T07:21:06.279Z,81.56
2017-12-13T07:21:46.710Z,81.56
2017-12-13T07:22:27.170Z,81.85
2017-12-13T07:23:07.530Z,81.66
2017-12-13T07:25:03.563Z,81.66
2017-12-13T07:25:44.056Z,81.66
2017-12-13T07:26:24.453Z,81.47
2017-12-13T07:27:04.876Z,81.56
2017-12-13T07:27:45.288Z,81.18
2017-12-13T07:28:25.697Z,80.8
2017-12-13T07:29:06.071Z,81.09
2017-12-13T07:29:46.459Z,80.71
2017-12-13T07:30:26.859Z,81.75
2017-12-13T07:31:07.479Z,81.47
2017-12-13T07:31:47.832Z,81.66
2017-12-13T07:32:28.246Z,81.47
2017-12-13T07:33:08.664Z,81.75
2017-12-13T07:33:49.176Z,82.23
2017-12-13T07:34:29.548Z,82.23
2017-12-13T07:35:09.915Z,82.13
2017-12-13T07:35:50.319Z,82.6
2017-12-13T07:36:30.803Z,82.6
2017-12-13T07:37:11.125Z,82.79
2017-12-13T07:37:51.591Z,82.51
2017-12-13T07:38:32.067Z,82.32
2017-12-13T07:39:12.460Z,82.79
2017-12-13T07:39:52.974Z,82.79
2017-12-13T07:40:33.898Z,82.79
2017-12-13T07:41:13.943Z,82.79
2017-12-13T07:41:54.311Z,82.51
2017-12-13T07:42:34.743Z,83.27
2017-12-13T07:43:15.225Z,83.36
2017-12-13T07:43:55.511Z,82.98
2017-12-13T07:44:35.905Z,82.98
2017-12-13T07:45:16.256Z,83.08
2017-12-13T07:45:56.911Z,82.89
2017-12-13T07:46:37.282Z,83.36
2017-12-13T07:47:17.815Z,83.08
2017-12-13T07:47:58.400Z,83.27
2017-12-13T07:48:38.924Z,82.98
2017-12-13T07:49:19.612Z,83.17
2017-12-13T07:50:00.152Z,82.89
2017-12-13T07:50:40.561Z,83.27
2017-12-13T07:51:21.202Z,82.89
2017-12-13T07:52:01.886Z,83.08
2017-12-13T07:52:42.439Z,83.08
2017-12-13T07:53:23.427Z,82.89
2017-12-13T07:54:03.705Z,83.08
2017-12-13T07:54:44.296Z,82.79
2017-12-13T07:55:24.802Z,82.98
2017-12-13T07:56:05.262Z,83.46
2017-12-13T07:56:45.782Z,83.36
2017-12-13T07:57:26.311Z,83.36
2017-12-13T07:58:06.679Z,83.46
2017-12-13T07:58:47.032Z,83.55
2017-12-13T07:59:27.485Z,83.36
2017-12-13T08:00:07.984Z,83.55
2017-12-13T08:00:48.544Z,83.55
2017-12-13T08:04:11.940Z,82.89
2017-12-13T08:04:50.772Z,82.79
2017-12-13T08:05:32.433Z,82.98
2017-12-13T08:06:12.890Z,82.89
2017-12-13T08:06:53.477Z,83.17
2017-12-13T08:07:34.050Z,82.89
2017-12-13T08:08:14.811Z,83.08
2017-12-13T08:08:55.324Z,82.6
2017-12-13T08:09:35.802Z,83.08
2017-12-13T08:10:16.582Z,82.6
2017-12-13T08:10:57.546Z,82.6
2017-12-13T08:11:38.300Z,82.7
2017-12-13T08:12:19.629Z,83.27
2017-12-13T08:13:00.121Z,82.51
2017-12-13T08:13:41.628Z,83.17
2017-12-13T08:14:23.157Z,82.79
2017-12-13T08:15:04.835Z,83.27
2017-12-13T08:15:45.444Z,83.27
2017-12-13T08:16:26.122Z,82.79
2017-12-13T08:17:08.637Z,83.36
2017-12-13T08:17:50.231Z,83.08
2017-12-13T08:18:30.166Z,82.89
2017-12-13T08:19:11.740Z,82.89
2017-12-13T08:19:53.350Z,82.98
2017-12-13T08:20:33.491Z,82.7
2017-12-13T08:21:14.153Z,82.89
2017-12-13T08:21:55.596Z,83.55
2017-12-13T08:22:36.306Z,83.36
2017-12-13T08:23:17.724Z,83.36
2017-12-13T08:23:58.248Z,83.36
2017-12-13T08:24:38.789Z,83.46
2017-12-13T08:25:19.588Z,83.36
2017-12-13T08:26:00.332Z,83.46
2017-12-13T08:26:41.180Z,83.36
2017-12-13T08:27:22.620Z,83.27
2017-12-13T08:28:02.724Z,83.36
2017-12-13T08:28:43.720Z,83.27
2017-12-13T08:29:25.160Z,83.74
2017-12-13T08:30:04.937Z,83.65
2017-12-13T08:30:45.347Z,83.46
2017-12-13T08:31:26.837Z,83.65
2017-12-13T08:32:07.647Z,83.27
2017-12-13T08:32:48.144Z,83.55
2017-12-13T08:33:28.808Z,83.55
2017-12-13T08:34:09.229Z,83.36
2017-12-13T08:34:50.304Z,83.55
2017-12-13T08:35:31.646Z,82.7
2017-12-13T08:36:11.396Z,82.7
2017-12-13T08:36:51.795Z,83.08
2017-12-13T08:37:32.244Z,82.89
2017-12-13T08:38:12.949Z,82.79
2017-12-13T08:38:54.464Z,83.08
2017-12-13T08:39:34.164Z,82.89
2017-12-13T08:40:14.871Z,82.84
2017-12-13T08:40:55.154Z,82.89
2017-12-13T08:41:35.474Z,82.89
2017-12-13T08:42:16.085Z,83.03
2017-12-13T08:42:56.311Z,82.84
2017-12-13T08:43:36.951Z,83.03
2017-12-13T08:44:18.942Z,83.31
2017-12-13T08:44:59.320Z,83.31
2017-12-13T08:45:39.879Z,83.36
2017-12-13T08:46:20.214Z,82.93
2017-12-13T08:47:02.193Z,82.93
2017-12-13T08:47:41.919Z,83.03
2017-12-13T08:48:23.645Z,83.31
2017-12-13T08:49:05.158Z,83.5
2017-12-13T08:49:45.177Z,83.4
2017-12-13T08:50:27.371Z,82.84
2017-12-13T08:51:08.144Z,82.93
2017-12-13T08:51:49.144Z,82.08
2017-12-13T08:52:30.378Z,82.08
2017-12-13T08:53:11.515Z,82.17
2017-12-13T08:53:52.660Z,82.36
2017-12-13T08:54:34.654Z,82.17
2017-12-13T08:55:16.629Z,82.17
2017-12-13T08:55:57.753Z,82.27
2017-12-13T08:56:38.239Z,81.98
2017-12-13T08:57:18.871Z,82.17
2017-12-13T08:58:00.540Z,81.98
2017-12-13T08:58:41.195Z,82.08
2017-12-13T08:59:22.828Z,81.98
2017-12-13T09:00:03.539Z,82.36
2017-12-13T09:00:43.958Z,82.27
2017-12-13T09:01:24.751Z,82.17
2017-12-13T09:02:06.645Z,82.27
2017-12-13T09:02:46.577Z,81.98
2017-12-13T09:03:27.500Z,81.51
2017-12-13T09:04:09.154Z,81.88
2017-12-13T09:04:49.907Z,81.79
2017-12-13T09:05:30.258Z,81.88
2017-12-13T09:06:11.649Z,81.88
2017-12-13T09:06:52.215Z,81.79
2017-12-13T09:07:32.938Z,82.17
2017-12-13T09:08:13.395Z,81.88
2017-12-13T09:08:54.024Z,81.51
2017-12-13T09:09:34.249Z,81.79
2017-12-13T09:11:34.113Z,81.79
2017-12-13T09:12:19.667Z,81.6
2017-12-13T09:13:01.214Z,81.32
2017-12-13T09:13:41.799Z,81.04
2017-12-13T09:14:22.561Z,81.13
2017-12-13T09:15:04.234Z,81.23
2017-12-13T09:15:45.522Z,80.84
2017-12-13T09:16:26.073Z,80.65
2017-12-13T09:17:07.601Z,80.75
2017-12-13T09:17:48.629Z,81.32
2017-12-13T09:18:29.741Z,81.23
2017-12-13T09:19:11.900Z,81.04
2017-12-13T09:19:53.348Z,80.84
2017-12-13T09:20:35.204Z,81.7
2017-12-13T09:21:15.611Z,81.6
2017-12-13T09:21:56.092Z,81.6
2017-12-13T09:22:38.884Z,81.88
2017-12-13T09:23:20.242Z,81.88
2017-12-13T09:24:00.939Z,81.98
2017-12-13T09:24:42.607Z,82.17
2017-12-13T09:25:22.303Z,82.17
2017-12-13T09:26:03.700Z,81.98
2017-12-13T09:26:44.144Z,82.74
2017-12-13T09:27:24.712Z,82.74
2017-12-13T09:28:05.613Z,82.36
2017-12-13T09:31:29.618Z,83.69
2017-12-13T09:32:11.251Z,83.59
2017-12-13T09:32:51.574Z,83.5
2017-12-13T09:33:32.193Z,83.59
2017-12-13T09:34:12.811Z,83.78
2017-12-13T09:34:53.512Z,83.31
2017-12-13T09:35:33.983Z,84.07
2017-12-13T09:36:14.468Z,83.69
2017-12-13T09:36:55.423Z,83.78
2017-12-13T09:37:35.830Z,83.88
2017-12-13T09:38:16.203Z,83.69
2017-12-13T09:38:56.575Z,83.59
2017-12-13T09:39:37.089Z,83.88
2017-12-13T09:40:17.489Z,83.22
2017-12-13T09:40:57.821Z,83.5
2017-12-13T09:41:38.287Z,82.74
2017-12-13T09:42:18.783Z,83.12
2017-12-13T09:42:59.405Z,83.03
2017-12-13T09:43:40.351Z,83.4
2017-12-13T09:44:20.742Z,83.12
2017-12-13T09:45:01.225Z,83.22
2017-12-13T09:45:41.621Z,83.12
2017-12-13T09:46:22.015Z,83.22
2017-12-13T09:47:02.420Z,83.03
2017-12-13T09:47:43.089Z,82.74
2017-12-13T09:48:23.497Z,83.22
2017-12-13T09:49:03.864Z,83.31
2017-12-13T09:49:44.339Z,83.4
2017-12-13T09:50:24.868Z,82.55
2017-12-13T09:51:05.201Z,82.84
2017-12-13T09:51:45.793Z,82.55
2017-12-13T09:52:26.191Z,82.36
2017-12-13T09:53:06.575Z,82.08
2017-12-13T09:53:47.031Z,82.17
2017-12-13T09:54:27.724Z,82.84
2017-12-13T09:55:08.390Z,82.93
2017-12-13T09:55:48.911Z,82.74